PST,Max TemperatureF,Mean TemperatureF,Min TemperatureF,Max Dew PointF,MeanDew PointF,Min DewpointF,Max Humidity, Mean Humidity, Min Humidity, Max Sea Level PressureIn, Mean Sea Level PressureIn, Min Sea Level PressureIn, Max VisibilityMiles, Mean VisibilityMiles, Min VisibilityMiles, Max Wind SpeedMPH, Mean Wind SpeedMPH, Max Gust SpeedMPH,PrecipitationIn, CloudCover, Events, WindDirDegrees
2013-2-1,54,44,34,45,40,34,100,83,66,30.36,30.31,30.25,10,7,0,13,4,16,0.00,4,Fog,23
2013-2-2,46,38,29,42,34,28,100,92,83,30.32,30.29,30.26,10,4,0,10,4,,0.00,1,Fog,155
2013-2-3,49,41,33,44,41,35,100,90,80,30.34,30.29,30.24,10,9,3,12,3,15,0.00,8,,156
2013-2-4,51,44,36,43,40,36,100,84,68,30.24,30.13,29.96,10,5,0,12,2,8,0.00,4,Fog,169
2013-2-5,53,49,44,46,43,40,93,82,71,30.08,29.98,29.94,10,10,5,23,11,32,0.12,7,Rain,176
2013-2-6,53,48,42,42,41,38,96,80,64,30.11,30.02,29.86,10,10,8,23,11,31,0.10,7,Rain,175
2013-2-7,49,41,33,39,37,33,100,83,65,30.15,30.04,29.97,10,8,0,18,7,23,0.13,5,Fog-Rain,166
2013-2-8,45,39,33,36,35,33,100,85,70,30.29,30.23,30.15,10,4,0,7,1,9,0.00,6,Fog,14
2013-2-9,45,39,33,43,39,33,100,88,76,30.31,30.29,30.27,10,8,2,9,4,,0.07,8,Rain,148
2013-2-10,46,44,42,43,39,36,100,85,70,30.35,30.33,30.31,10,8,4,9,3,17,0.00,8,,5
2013-2-11,47,44,40,42,38,36,92,79,65,30.40,30.38,30.32,10,10,10,12,5,15,T,8,Rain,156
2013-2-12,55,50,44,46,44,42,100,86,71,30.49,30.45,30.41,10,10,6,14,7,18,0.00,8,,180
2013-2-13,53,50,46,46,43,40,93,79,64,30.52,30.47,30.44,10,10,10,13,6,16,0.00,8,,200
2013-2-14,59,48,36,43,41,36,96,74,51,30.56,30.52,30.49,10,10,10,10,4,23,0.00,4,,22
2013-2-15,59,48,37,45,41,37,100,79,57,30.48,30.33,30.22,10,8,1,17,5,43,0.00,4,,41
2013-2-16,51,45,38,46,40,35,100,83,66,30.30,30.26,30.23,10,8,2,15,5,20,0.01,6,Rain,189
2013-2-17,47,40,32,37,34,30,100,77,53,30.30,30.23,30.10,10,10,10,7,1,14,0.00,5,,124
2013-2-18,48,40,31,38,35,32,100,80,60,30.08,29.94,29.74,10,10,10,16,8,21,0.05,5,Rain,164
2013-2-19,54,44,33,39,37,32,100,77,54,30.01,29.79,29.68,10,10,10,16,5,21,T,6,,292
2013-2-20,48,41,33,41,37,34,100,81,61,30.12,30.07,30.02,10,9,2,20,5,25,0.12,7,Rain,184
2013-2-21,45,41,36,41,39,36,100,92,83,30.22,30.18,30.13,10,10,5,18,10,24,0.03,8,Rain,174
2013-2-22,46,43,39,45,40,33,92,83,73,30.19,30.05,29.93,10,9,2,30,14,41,0.45,7,Rain,193
2013-2-23,49,41,33,38,35,32,100,80,60,30.45,30.29,30.12,10,9,7,22,7,26,0.07,6,Rain,197
2013-2-24,51,43,34,37,35,32,100,75,50,30.45,30.32,30.08,10,10,10,17,9,23,0.01,6,Rain,162
2013-2-25,50,42,33,41,38,31,100,81,61,30.41,30.26,30.06,10,10,5,24,8,32,0.20,6,Rain,208
2013-2-26,51,42,33,37,34,29,100,71,42,30.40,30.33,30.26,10,10,10,13,5,20,0.00,4,,161
2013-2-27,52,46,40,46,41,37,100,81,61,30.31,30.27,30.22,10,10,9,18,8,22,T,8,Rain,156
2013-2-28,58,53,48,54,50,45,93,87,80,30.45,30.31,30.21,10,9,2,20,11,25,0.06,8,Rain,177